TAF Text Data
IDs:
Format:
Raw Decoded Include METAR

Data at: 0913 UTC 02 Aug 2021

Region: TOP
KATL 020759Z 0208/0312 32005KT P6SM SCT250
  FM021500 35004KT P6SM SCT035 BKN250
  FM022000 33005KT P6SM VCSH SCT035 BKN050
  FM030200 35004KT P6SM FEW050 OVC120
  FM030800 VRB03KT P6SM FEW008 BKN012


KBOS 020853Z 0209/0312 25006KT P6SM SCT050 OVC100
  FM021200 29006KT P6SM FEW020 SCT050 BKN100
  FM021600 31009KT P6SM BKN080
  FM022300 31006KT P6SM BKN250


KBWI 020524Z 0206/0312 30004KT P6SM SKC
  FM021800 33007KT P6SM FEW060
  FM022300 VRB03KT P6SM SKC
  FM030900 00000KT P6SM BKN080
  FM031100 00000KT P6SM OVC080


KCLE 020842Z 0209/0312 36006KT P6SM FEW250

KCLT 020757Z 0208/0312 32004KT P6SM FEW060
  FM021200 02005KT P6SM FEW060
  FM030200 07007KT P6SM VCSH SCT060
  FM030700 08008KT P6SM -SHRA OVC050


KCVG 020855Z 0209/0312 36005KT P6SM SKC
  FM021300 01004KT P6SM FEW250
  FM021800 03005KT P6SM FEW040 SCT250
  FM030200 VRB03KT P6SM FEW040


KDCA 020524Z 0206/0312 34008KT P6SM FEW070
  FM022300 VRB04KT P6SM SKC
  FM030800 00000KT P6SM BKN250


KDEN 020901Z 0209/0312 19008KT P6SM FEW220
  FM021400 VRB05KT 6SM FU FEW100 SCT200
  FM021800 08007KT 6SM FU FEW090 SCT200
  FM022200 04008KT 6SM FU SCT080 BKN150
  FM030000 32012KT P6SM SCT080 BKN140
  FM030300 22008KT P6SM SCT080 BKN120


KDFW 020837Z 0209/0312 36007KT P6SM VCTS SCT015 BKN070CB
  TEMPO 0209/0213 -SHRA BKN021
  FM021300 01008KT P6SM VCSH BKN025
  FM021800 02011KT P6SM VCTS BKN045CB
  FM022100 02010KT P6SM FEW040 SCT100


KDTW 020842Z 0209/0312 32004KT P6SM SKC
  FM021200 32005KT P6SM FEW045
  FM021600 30006KT P6SM BKN080
  FM030200 25003KT P6SM SCT080


KEWR 020831Z 0209/0312 32009KT P6SM FEW015 SCT035
  FM021200 33012KT P6SM FEW020
  FM021800 32009KT P6SM SCT060
  FM022300 32006KT P6SM FEW060
  FM030600 35004KT P6SM FEW060


KFLL 020836Z 0209/0312 VRB05KT P6SM VCSH FEW025 SCT250
  FM021600 16010KT P6SM VCTS SCT025CB BKN050
  FM030000 VRB05KT P6SM FEW030 SCT100
  FM030600 VRB04KT P6SM VCSH FEW025 SCT050


KIAD 020912Z 0209/0312 00000KT P6SM SKC
  FM021800 34005KT P6SM FEW060
  FM022300 VRB03KT P6SM SKC
  FM030400 00000KT P6SM SCT080
  FM030700 00000KT P6SM BKN080


KIAH 020844Z 0209/0312 22005KT P6SM SCT060 BKN250
  FM021300 27006KT P6SM VCSH FEW015 SCT050 BKN100
  FM021900 31006KT P6SM VCTS SCT035CB BKN070 BKN140
  FM030200 34003KT P6SM VCSH SCT025 BKN150
  FM030700 VRB04KT P6SM VCSH SCT015 BKN090


KJFK 020831Z 0209/0312 32010KT P6SM FEW015 SCT035
  FM021200 33012KT P6SM FEW020
  FM021800 32010KT P6SM SCT060
  FM022200 33006KT P6SM SCT060
  FM030600 36004KT P6SM FEW060


KLAS 020849Z 0209/0312 20007KT P6SM FEW100
  FM021200 VRB05KT P6SM FEW100
  FM021700 09007KT P6SM FEW100


KLAX 020910Z 0209/0312 14004KT P6SM SKC
  FM021700 25006KT P6SM SKC
  FM022000 26012KT P6SM SKC
  FM030400 25006KT P6SM SKC
  FM031000 VRB03KT P6SM SKC


KLGA 020831Z 0209/0312 32010KT P6SM FEW015 SCT035
  FM021200 33012KT P6SM FEW020
  FM021800 34009KT P6SM SCT060
  FM030000 34006KT P6SM FEW060
  FM030600 36004KT P6SM FEW060


KMCO 020900Z 0209/0312 VRB04KT P6SM FEW020 SCT100 BKN250
  FM021500 23008KT P6SM VCSH SCT035 SCT250
  FM021800 24008KT P6SM VCTS SCT050CB SCT080 BKN120
  TEMPO 0218/0221 3SM TSRA SCT025CB BKN035
  FM030000 18006KT P6SM VCSH SCT060 BKN090 BKN250
  FM030600 VRB04KT P6SM SCT090 BKN250


KMDW 020844Z 0209/0312 33005KT P6SM FEW025
  FM021400 02005KT P6SM SCT030
  FM021700 07008KT P6SM BKN050
  FM030100 13003KT P6SM FEW060


KMEM 020859Z 0209/0312 03005KT P6SM FEW090 OVC150
  FM021700 04007KT P6SM SCT045 BKN100
  FM030000 04005KT P6SM SCT100 BKN250


KMIA 020836Z 0209/0312 VRB04KT P6SM VCSH FEW025 SCT250
  FM021600 16010KT P6SM VCTS SCT025CB BKN050
  FM030000 VRB05KT P6SM FEW030 SCT100
  FM030600 VRB04KT P6SM VCSH FEW025 SCT050


KMSP 020849Z 0209/0312 24003KT P6SM FEW250
  FM021500 27006KT P6SM SCT250
  FM030100 18004KT 6SM FU FEW250


KORD 020843Z 0209/0312 32005KT P6SM FEW025
  FM021400 02005KT P6SM SCT030
  FM021700 06008KT P6SM BKN050
  FM030100 VRB03KT P6SM FEW060


KPDX 020903Z 0209/0306 33005KT P6SM FEW150 SCT250

KPHL 020833Z 0209/0312 31006KT P6SM FEW004 FEW100
  FM021300 33010G16KT P6SM SCT050
  FM022300 30006KT P6SM SCT250
  FM030600 VRB03KT P6SM OVC250


KPHX 020838Z 0209/0312 12005KT P6SM FEW100 FEW250
  FM022000 27008KT P6SM SKC
  FM030200 23004KT P6SM FEW120 FEW250
  FM030600 11005KT P6SM SKC


KPIT 020857Z 0209/0312 31005KT P6SM SCT060
  TEMPO 0209/0212 4SM BR
  FM021600 35007KT P6SM SCT050
  FM030000 01004KT P6SM SKC


KSAN 020853Z 0209/0312 VRB04KT P6SM FEW008
  TEMPO 0212/0215 3SM BR BKN004
  FM021800 29012KT P6SM SKC
  FM030400 31005KT P6SM SKC


KSEA 020901Z 0209/0312 28004KT P6SM BKN250
  FM022100 33008KT P6SM SKC


KSFO 020901Z 0209/0312 24006KT P6SM FEW014
  FM021200 27006KT P6SM OVC012
  FM021700 34005KT P6SM FEW008 FEW015
  FM022200 30015KT P6SM FEW015
  FM030500 27012KT P6SM SCT012
  FM031000 28006KT P6SM BKN012


KSLC 020538Z 0206/0312 16009KT P6SM BKN100
  FM021900 32008KT P6SM VCSH SCT060 SCT120
  FM030300 15005KT P6SM FEW150


KSTL 020851Z 0209/0312 03003KT P6SM SKC

KTPA 020909Z 0209/0312 22006KT P6SM FEW020 BKN250
  FM021200 23008KT P6SM VCSH SCT025 BKN100
  FM021700 24008KT P6SM VCTS FEW035CB BKN070
  FM030100 22006KT P6SM FEW025 BKN250